Terminal Aerodrome Forecast
Issued by NWS

Home | Current Version | Previous Version | Text Only | Print | Product List | Glossary On
Versions: 1 2 3 4 5 6 7 8 9 10 11 12 13 14 15 16 17 18 19 20
000
FTUS46 KLOX 281349 AAA
TAFPRB
TAF AMD
KPRB 281349Z 2814/2912 30006KT 2SM BR OVC003
     FM281600 31006KT 5SM BR BKN006
     FM281700 31006KT P6SM SKC
     FM282200 27012KT P6SM SKC
     FM290200 30015KT P6SM SKC
     FM290700 30007KT P6SM SKC=

USA.gov is the U.S. government's official web portal to all federal, state and local government web resources and services.